createdAt,value
2017-06-03T00:00:20.977Z,22.99
2017-06-03T00:01:31.023Z,22.92
2017-06-03T00:02:41.373Z,22.94
2017-06-03T00:03:51.443Z,22.99
2017-06-03T00:05:01.805Z,22.91
2017-06-03T00:06:11.865Z,23.03
2017-06-03T00:07:22.220Z,22.91
2017-06-03T00:08:32.579Z,22.97
2017-06-03T00:09:42.327Z,23.04
2017-06-03T00:10:52.675Z,23.03
2017-06-03T00:12:02.720Z,23.04
2017-06-03T00:13:12.756Z,23.06
2017-06-03T00:14:23.099Z,23.01
2017-06-03T00:15:33.160Z,23.03
2017-06-03T00:16:43.521Z,23.03
2017-06-03T00:17:53.885Z,23.04
2017-06-03T00:19:03.925Z,23.01
2017-06-03T00:20:13.977Z,22.99
2017-06-03T00:21:24.025Z,22.91
2017-06-03T00:22:34.375Z,23
2017-06-03T00:23:44.729Z,22.88
2017-06-03T00:24:54.769Z,22.86
2017-06-03T00:26:05.131Z,22.96
2017-06-03T00:27:15.213Z,22.88
2017-06-03T00:28:25.562Z,22.88
2017-06-03T00:29:35.917Z,22.85
2017-06-03T00:30:46.280Z,22.79
2017-06-03T00:31:56.311Z,22.73
2017-06-03T00:33:06.746Z,22.79
2017-06-03T00:34:17.082Z,22.82
2017-06-03T00:35:27.435Z,22.81
2017-06-03T00:36:37.154Z,22.76
2017-06-03T00:37:47.499Z,22.7
2017-06-03T00:38:57.850Z,22.76
2017-06-03T00:40:08.207Z,22.79
2017-06-03T00:41:18.563Z,22.78
2017-06-03T00:42:28.610Z,22.67
2017-06-03T00:43:38.964Z,22.71
2017-06-03T00:44:49.064Z,22.71
2017-06-03T00:45:59.116Z,22.67
2017-06-03T00:47:09.163Z,22.7
2017-06-03T00:48:19.502Z,22.76
2017-06-03T00:49:29.547Z,22.67
2017-06-03T00:50:39.935Z,22.7
2017-06-03T00:51:49.976Z,22.64
2017-06-03T00:53:00.007Z,22.59
2017-06-03T00:54:10.044Z,22.55
2017-06-03T00:55:19.773Z,22.52
2017-06-03T00:56:29.821Z,22.45
2017-06-03T00:57:40.169Z,22.44
2017-06-03T00:58:50.224Z,22.41
2017-06-03T01:00:00.573Z,22.38
2017-06-03T01:01:10.918Z,22.48
2017-06-03T01:02:21.322Z,22.38
2017-06-03T01:03:31.692Z,22.36
2017-06-03T01:04:42.044Z,22.44
2017-06-03T01:05:52.081Z,22.36
2017-06-03T01:07:02.444Z,22.44
2017-06-03T01:08:13.085Z,22.34
2017-06-03T01:09:22.827Z,22.26
2017-06-03T01:10:33.158Z,22.27
2017-06-03T01:11:43.500Z,22.24
2017-06-03T01:12:53.845Z,22.31
2017-06-03T01:14:04.250Z,22.22
2017-06-03T01:15:13.962Z,22.18
2017-06-03T01:16:24.310Z,22.27
2017-06-03T01:17:34.363Z,22.26
2017-06-03T01:18:44.720Z,22.23
2017-06-03T01:19:55.124Z,22.27
2017-06-03T01:21:05.470Z,22.29
2017-06-03T01:22:15.813Z,22.24
2017-06-03T01:23:26.165Z,22.2
2017-06-03T01:24:36.211Z,22.27
2017-06-03T01:25:46.561Z,22.26
2017-06-03T01:26:56.909Z,22.18
2017-06-03T01:28:06.952Z,22.23
2017-06-03T01:29:17.294Z,22.26
2017-06-03T01:30:27.659Z,22.29
2017-06-03T01:31:37.745Z,22.23
2017-06-03T01:32:48.121Z,22.15
2017-06-03T01:33:58.174Z,22.12
2017-06-03T01:35:08.525Z,22.08
2017-06-03T01:36:18.864Z,21.94
2017-06-03T01:37:29.214Z,21.89
2017-06-03T01:38:39.777Z,22
2017-06-03T01:39:50.129Z,21.99
2017-06-03T01:40:59.856Z,21.93
2017-06-03T01:42:10.201Z,21.94
2017-06-03T01:43:19.983Z,21.92
2017-06-03T01:44:30.030Z,21.85
2017-06-03T01:45:40.387Z,21.86
2017-06-03T01:46:50.428Z,21.89
2017-06-03T01:48:00.792Z,21.8
2017-06-03T01:49:11.190Z,21.83
2017-06-03T01:50:21.535Z,21.89
2017-06-03T01:51:31.266Z,21.8
2017-06-03T01:52:41.633Z,21.93
2017-06-03T01:53:51.991Z,21.93
2017-06-03T01:55:02.354Z,21.9
2017-06-03T01:56:12.697Z,21.83
2017-06-03T01:57:22.733Z,21.83
2017-06-03T01:58:32.140Z,21.83
2017-06-03T01:59:42.521Z,21.83
2017-06-03T02:00:52.575Z,21.85
2017-06-03T02:02:02.909Z,21.82
2017-06-03T02:03:12.964Z,21.86
2017-06-03T02:04:23.308Z,21.8
2017-06-03T02:05:33.432Z,21.85
2017-06-03T02:06:43.989Z,21.82
2017-06-03T02:07:54.340Z,21.85
2017-06-03T02:09:04.391Z,21.74
2017-06-03T02:10:14.746Z,21.76
2017-06-03T02:11:24.794Z,21.74
2017-06-03T02:12:34.893Z,21.74
2017-06-03T02:13:45.244Z,21.73
2017-06-03T02:14:55.272Z,21.59
2017-06-03T02:16:05.325Z,21.62
2017-06-03T02:17:15.725Z,21.66
2017-06-03T02:18:26.081Z,21.62
2017-06-03T02:19:36.124Z,21.59
2017-06-03T02:20:46.468Z,21.7
2017-06-03T02:21:56.820Z,21.61
2017-06-03T02:23:07.220Z,21.7
2017-06-03T02:24:17.584Z,21.71
2017-06-03T02:25:27.923Z,21.7
2017-06-03T02:26:38.275Z,21.71
2017-06-03T02:27:48.624Z,21.68
2017-06-03T02:28:59.156Z,21.71
2017-06-03T02:30:09.209Z,21.7
2017-06-03T02:31:19.256Z,21.73
2017-06-03T02:32:29.309Z,21.67
2017-06-03T02:33:39.648Z,21.82
2017-06-03T02:34:50.057Z,21.78
2017-06-03T02:36:00.403Z,21.73
2017-06-03T02:37:10.777Z,21.76
2017-06-03T02:38:20.496Z,21.68
2017-06-03T02:39:30.841Z,21.78
2017-06-03T02:40:40.939Z,21.83
2017-06-03T02:41:51.278Z,21.78
2017-06-03T02:43:01.631Z,21.89
2017-06-03T02:44:11.987Z,21.8
2017-06-03T02:45:22.328Z,21.85
2017-06-03T02:46:32.740Z,21.82
2017-06-03T02:47:42.474Z,21.77
2017-06-03T02:48:52.830Z,21.93
2017-06-03T02:50:02.884Z,21.85
2017-06-03T02:51:12.916Z,21.85
2017-06-03T02:52:23.005Z,21.83
2017-06-03T02:53:33.041Z,21.83
2017-06-03T02:54:43.084Z,21.96
2017-06-03T02:55:53.436Z,21.94
2017-06-03T02:57:03.797Z,21.86
2017-06-03T02:58:14.200Z,21.92
2017-06-03T02:59:24.236Z,21.94
2017-06-03T03:00:34.281Z,21.96
2017-06-03T03:01:44.628Z,22.02
2017-06-03T03:33:58.062Z,19.53
2017-06-03T03:35:08.398Z,19.6
2017-06-03T03:36:18.750Z,19.55
2017-06-03T03:37:28.786Z,19.68
2017-06-03T03:38:38.801Z,19.75
2017-06-03T03:39:49.189Z,19.85
2017-06-03T03:40:58.913Z,20
2017-06-03T03:42:09.257Z,20.15
2017-06-03T03:43:19.286Z,20.27
2017-06-03T03:44:29.008Z,20.48
2017-06-03T03:45:39.407Z,20.51
2017-06-03T03:46:49.454Z,20.67
2017-06-03T03:47:59.801Z,20.96
2017-06-03T03:49:10.144Z,21.11
2017-06-03T03:50:20.185Z,21.36
2017-06-03T03:51:30.271Z,21.48
2017-06-03T03:52:40.641Z,21.46
2017-06-03T03:53:50.665Z,21.73
2017-06-03T03:55:01.019Z,21.8
2017-06-03T03:56:11.596Z,21.9
2017-06-03T03:57:21.995Z,21.96
2017-06-03T03:58:32.366Z,22.14
2017-06-03T03:59:42.722Z,22.22
2017-06-03T04:00:53.063Z,22.29
2017-06-03T04:02:03.418Z,22.31
2017-06-03T04:03:13.817Z,22.48
2017-06-03T04:04:24.166Z,22.55
2017-06-03T04:05:34.515Z,22.73
2017-06-03T04:06:44.551Z,22.79
2017-06-03T04:07:54.576Z,22.91
2017-06-03T04:09:04.639Z,22.91
2017-06-03T04:10:14.990Z,23.03
2017-06-03T04:11:25.351Z,23.09
2017-06-03T04:12:35.403Z,23.22
2017-06-03T04:13:45.760Z,23.34
2017-06-03T04:14:55.868Z,23.47
2017-06-03T04:16:06.218Z,23.5
2017-06-03T04:17:16.255Z,23.55
2017-06-03T04:18:26.609Z,24.33
2017-06-03T04:19:36.956Z,25.54
2017-06-03T04:20:47.321Z,26.44
2017-06-03T04:21:57.051Z,27.26
2017-06-03T04:23:07.420Z,27.99
2017-06-03T04:24:17.431Z,28.42
2017-06-03T04:25:27.503Z,28.95
2017-06-03T04:26:37.861Z,29.38
2017-06-03T04:27:47.898Z,29.76
2017-06-03T04:28:57.640Z,30.09
2017-06-03T04:30:07.671Z,30.42
2017-06-03T04:31:18.023Z,30.66
2017-06-03T04:32:28.064Z,30.94
2017-06-03T04:33:38.411Z,31.26
2017-06-03T04:34:48.758Z,31.41
2017-06-03T04:35:59.118Z,31.52
2017-06-03T04:37:09.453Z,31.71
2017-06-03T04:38:19.813Z,31.82
2017-06-03T04:39:30.160Z,32.03
2017-06-03T04:40:40.501Z,32.09
2017-06-03T04:41:50.229Z,32.2
2017-06-03T04:43:00.575Z,32.35
2017-06-03T04:44:10.930Z,32.46
2017-06-03T04:45:21.278Z,32.59
2017-06-03T04:46:31.329Z,32.71
2017-06-03T04:47:41.681Z,32.87
2017-06-03T04:48:52.032Z,32.86
2017-06-03T04:50:02.440Z,32.94
2017-06-03T04:51:12.796Z,33.01
2017-06-03T04:52:23.169Z,33.12
2017-06-03T04:53:33.500Z,33.21
2017-06-03T04:54:43.847Z,33.16
2017-06-03T04:55:54.206Z,33.24
2017-06-03T04:57:04.556Z,33.39
2017-06-03T04:58:14.915Z,33.34
2017-06-03T04:59:25.270Z,33.4
2017-06-03T05:00:35.011Z,33.46
2017-06-03T05:01:45.429Z,33.37
2017-06-03T05:02:55.797Z,33.4
2017-06-03T05:04:06.149Z,33.52
2017-06-03T05:05:16.192Z,33.59
2017-06-03T05:06:26.558Z,33.62
2017-06-03T05:07:36.944Z,33.4
2017-06-03T05:08:47.305Z,33.55
2017-06-03T05:09:57.346Z,33.63
2017-06-03T05:11:07.395Z,33.71
2017-06-03T05:12:17.768Z,33.84
2017-06-03T05:13:27.865Z,33.89
2017-06-03T05:14:37.912Z,34.08
2017-06-03T05:15:47.971Z,34.11
2017-06-03T05:16:58.016Z,34.05
2017-06-03T05:18:08.363Z,34.22
2017-06-03T05:19:18.765Z,34.24
2017-06-03T05:20:28.827Z,34.3
2017-06-03T05:21:39.184Z,34.39
2017-06-03T05:22:49.546Z,34.43
2017-06-03T05:23:59.594Z,34.52
2017-06-03T05:25:09.952Z,34.67
2017-06-03T05:26:20.314Z,34.64
2017-06-03T05:27:30.677Z,34.72
2017-06-03T05:28:41.019Z,34.86
2017-06-03T05:29:51.065Z,34.41
2017-06-03T05:31:01.103Z,34.19
2017-06-03T05:32:11.465Z,33.26
2017-06-03T05:33:21.841Z,32.59
2017-06-03T05:34:31.888Z,32.3
2017-06-03T05:35:42.261Z,31.77
2017-06-03T05:36:52.619Z,32.23
2017-06-03T05:38:02.968Z,31.63
2017-06-03T05:39:13.344Z,31.04
2017-06-03T05:40:23.692Z,30.97
2017-06-03T05:41:34.044Z,30.4
2017-06-03T05:42:44.083Z,30.22
2017-06-03T05:43:54.120Z,30.34
2017-06-03T05:45:04.497Z,30.11
2017-06-03T05:46:14.851Z,31.03
2017-06-03T05:47:25.276Z,31.86
2017-06-03T05:48:35.640Z,32.38
2017-06-03T05:49:46.007Z,32.24
2017-06-03T05:50:56.048Z,32.74
2017-06-03T05:52:06.401Z,33.03
2017-06-03T05:53:16.432Z,33.31
2017-06-03T05:54:26.542Z,33.47
2017-06-03T05:55:36.914Z,33.61
2017-06-03T05:56:47.261Z,33.74
2017-06-03T05:57:57.633Z,33.73
2017-06-03T05:59:07.985Z,33.9
2017-06-03T06:00:18.388Z,33.87
2017-06-03T06:01:28.735Z,33.74
2017-06-03T06:02:39.112Z,33.78
2017-06-03T06:03:49.151Z,33.71
2017-06-03T06:04:58.894Z,33.83
2017-06-03T06:06:09.000Z,33.75
2017-06-03T06:07:19.047Z,33.77
2017-06-03T06:08:29.616Z,33.73
2017-06-03T06:09:39.963Z,33.74
2017-06-03T06:10:50.011Z,33.75
2017-06-03T06:12:00.413Z,33.75
2017-06-03T06:13:10.771Z,33.62
2017-06-03T06:14:20.808Z,33.59
2017-06-03T06:15:31.154Z,33.65
2017-06-03T06:16:41.520Z,33.55
2017-06-03T06:17:51.945Z,33.59
2017-06-03T06:19:02.305Z,33.5
2017-06-03T06:20:12.363Z,33.4
2017-06-03T06:21:22.729Z,32.67
2017-06-03T06:22:33.110Z,32.03
2017-06-03T06:23:43.557Z,31.94
2017-06-03T06:24:53.943Z,31.8
2017-06-03T06:26:04.284Z,31.97
2017-06-03T06:27:14.652Z,31.91
2017-06-03T06:28:24.696Z,31.58
2017-06-03T06:29:35.100Z,31.4
2017-06-03T06:30:45.462Z,31.78
2017-06-03T06:31:55.505Z,31.82
2017-06-03T06:33:05.865Z,31.95
2017-06-03T06:34:16.222Z,31.93
2017-06-03T06:35:26.620Z,31.97
2017-06-03T06:36:36.353Z,32.08
2017-06-03T06:37:46.389Z,32.01
2017-06-03T06:38:56.740Z,31.9
2017-06-03T06:40:07.096Z,31.94
2017-06-03T06:41:17.149Z,31.91
2017-06-03T06:42:27.505Z,32.01
2017-06-03T06:43:38.145Z,32.01
2017-06-03T06:44:48.509Z,32.03
2017-06-03T06:45:58.572Z,32.03
2017-06-03T06:47:08.992Z,31.94
2017-06-03T06:48:18.867Z,31.95
2017-06-03T06:49:29.223Z,31.77
2017-06-03T06:50:38.971Z,31.53
2017-06-03T06:51:49.346Z,31.52
2017-06-03T06:52:59.442Z,31.47
2017-06-03T06:54:09.806Z,31.43
2017-06-03T06:55:19.845Z,31.45
2017-06-03T06:56:30.206Z,31.43
2017-06-03T06:57:40.260Z,31.37
2017-06-03T06:58:50.369Z,31.26
2017-06-03T07:00:00.717Z,31.23
2017-06-03T07:01:11.073Z,31.23
2017-06-03T07:02:21.641Z,31.19
2017-06-03T07:03:31.996Z,31.22
2017-06-03T07:04:42.359Z,31.03
2017-06-03T07:05:52.706Z,31.04
2017-06-03T07:07:02.752Z,31.16
2017-06-03T07:08:13.106Z,31.12
2017-06-03T07:09:22.836Z,30.97
2017-06-03T07:10:33.178Z,30.86
2017-06-03T07:11:43.538Z,30.77
2017-06-03T07:12:53.891Z,30.77
2017-06-03T07:14:04.258Z,30.75
2017-06-03T07:15:14.309Z,30.82
2017-06-03T07:16:24.718Z,30.91
2017-06-03T07:17:34.748Z,30.91
2017-06-03T07:18:44.789Z,30.89
2017-06-03T07:19:54.831Z,30.84
2017-06-03T07:21:04.896Z,30.93
2017-06-03T07:22:15.331Z,30.94
2017-06-03T07:23:25.690Z,30.88
2017-06-03T07:24:36.050Z,30.93
2017-06-03T07:25:46.394Z,30.91
2017-06-03T07:26:56.752Z,30.89
2017-06-03T07:28:07.170Z,30.86
2017-06-03T07:29:17.517Z,30.85
2017-06-03T07:30:27.867Z,30.79
2017-06-03T07:31:38.239Z,30.88
2017-06-03T07:32:48.294Z,30.86
2017-06-03T07:33:58.348Z,30.85
2017-06-03T07:35:08.695Z,30.93
2017-06-03T07:36:19.061Z,31.03
2017-06-03T07:37:29.408Z,31.13
2017-06-03T07:38:39.782Z,31.12
2017-06-03T07:39:50.174Z,31.23
2017-06-03T07:41:00.323Z,31.23
2017-06-03T07:42:10.685Z,31.26
2017-06-03T07:43:20.724Z,31.3
2017-06-03T07:44:31.099Z,31.34
2017-06-03T07:45:41.219Z,31.34
2017-06-03T07:46:51.584Z,31.4
2017-06-03T07:48:01.938Z,31.43
2017-06-03T07:49:12.286Z,31.44
2017-06-03T07:50:22.654Z,31.4
2017-06-03T07:51:33.061Z,31.45
2017-06-03T07:52:43.110Z,31.47
2017-06-03T07:53:53.485Z,31.62
2017-06-03T07:55:03.838Z,31.63
2017-06-03T07:56:13.915Z,31.75
2017-06-03T07:57:24.344Z,31.87
2017-06-03T07:58:34.704Z,32
2017-06-03T07:59:45.051Z,32.09
2017-06-03T08:00:55.078Z,32.1
2017-06-03T08:02:05.120Z,32.15
2017-06-03T08:03:15.508Z,32.17
2017-06-03T08:04:25.864Z,32.24
2017-06-03T08:05:35.920Z,32.13
2017-06-03T08:06:46.276Z,32.15
2017-06-03T08:07:56.325Z,32.16
2017-06-03T08:09:06.727Z,32.08
2017-06-03T08:10:17.073Z,32.1
2017-06-03T08:11:27.421Z,32.09
2017-06-03T08:12:37.457Z,32.08
2017-06-03T08:13:47.867Z,32
2017-06-03T08:14:57.910Z,32.08
2017-06-03T08:16:07.980Z,32.05
2017-06-03T08:17:18.349Z,32.03
2017-06-03T08:18:28.702Z,32
2017-06-03T08:19:39.057Z,32.05
2017-06-03T08:20:49.494Z,32.05
2017-06-03T08:21:59.861Z,32.09
2017-06-03T08:23:10.245Z,32.09
2017-06-03T08:24:20.629Z,32.09
2017-06-03T08:25:30.710Z,32.16
2017-06-03T08:26:40.799Z,32.23
2017-06-03T08:27:51.171Z,32.25
2017-06-03T08:29:01.252Z,32.38
2017-06-03T08:30:11.302Z,32.34
2017-06-03T08:31:21.338Z,32.39
2017-06-03T08:32:31.761Z,32.35
2017-06-03T08:33:41.489Z,32.38
2017-06-03T08:34:51.847Z,32.34
2017-06-03T08:36:02.219Z,32.42
2017-06-03T08:37:12.599Z,32.35
2017-06-03T08:38:22.965Z,32.35
2017-06-03T08:39:33.319Z,32.45
2017-06-03T08:40:43.374Z,32.35
2017-06-03T08:41:53.728Z,32.34
2017-06-03T08:43:04.105Z,32.47
2017-06-03T08:44:14.510Z,32.43
2017-06-03T08:45:24.565Z,32.5
2017-06-03T08:46:34.632Z,32.54
2017-06-03T08:47:45.005Z,32.45
2017-06-03T08:48:55.372Z,32.52
2017-06-03T08:50:05.477Z,32.47
2017-06-03T08:51:15.531Z,32.46
2017-06-03T08:52:25.893Z,32.5
2017-06-03T08:53:36.253Z,32.52
2017-06-03T08:54:46.295Z,32.61
2017-06-03T08:55:56.698Z,32.68
2017-06-03T08:57:07.059Z,32.65
2017-06-03T08:58:17.116Z,32.69
2017-06-03T08:59:27.463Z,32.72
2017-06-03T09:00:37.202Z,32.68
2017-06-03T09:01:47.241Z,32.61
2017-06-03T09:02:57.599Z,32.61
2017-06-03T09:04:07.951Z,32.49
2017-06-03T09:05:18.308Z,32.47
2017-06-03T09:06:28.714Z,32.57
2017-06-03T09:07:38.752Z,32.5
2017-06-03T09:08:48.824Z,32.49
2017-06-03T09:09:59.191Z,32.61
2017-06-03T09:11:09.555Z,32.68
2017-06-03T09:12:19.916Z,32.69
2017-06-03T09:13:29.954Z,32.74
2017-06-03T09:14:40.006Z,32.81
2017-06-03T09:15:50.054Z,32.76
2017-06-03T09:17:00.089Z,32.87
2017-06-03T09:18:10.513Z,32.83
2017-06-03T09:19:20.878Z,32.9
2017-06-03T09:20:30.927Z,32.94
2017-06-03T09:21:41.307Z,32.98
2017-06-03T09:22:51.038Z,33.08
2017-06-03T09:24:01.454Z,33.05
2017-06-03T09:25:11.526Z,33.11
2017-06-03T09:26:21.606Z,33.09
2017-06-03T09:27:31.974Z,33.13
2017-06-03T09:28:42.330Z,33.12
2017-06-03T09:29:52.121Z,33.12
2017-06-03T09:31:02.182Z,33.2
2017-06-03T09:32:12.223Z,33.21
2017-06-03T09:33:22.594Z,33.09
2017-06-03T09:34:32.650Z,33.23
2017-06-03T09:35:43.064Z,33.29
2017-06-03T09:36:53.121Z,33.16
2017-06-03T09:38:03.504Z,33.26
2017-06-03T09:39:13.255Z,33.28
2017-06-03T09:40:23.610Z,33.32
2017-06-03T09:41:33.976Z,33.23
2017-06-03T09:42:44.333Z,33.23
2017-06-03T09:43:54.066Z,33.41
2017-06-03T09:45:03.807Z,33.37
2017-06-03T09:46:14.155Z,33.43
2017-06-03T09:47:24.207Z,33.43
2017-06-03T09:48:34.571Z,33.37
2017-06-03T09:49:44.935Z,33.36
2017-06-03T09:50:55.288Z,33.39
2017-06-03T09:52:05.671Z,33.29
2017-06-03T09:53:16.049Z,33.43
2017-06-03T09:54:25.795Z,33.47
2017-06-03T09:55:36.162Z,33.56
2017-06-03T09:56:46.535Z,33.61
2017-06-03T09:57:56.901Z,33.66
2017-06-03T09:59:07.020Z,33.61
2017-06-03T10:00:17.384Z,33.71
2017-06-03T10:01:27.762Z,33.78
2017-06-03T10:02:38.147Z,33.77
2017-06-03T10:04:07.137Z,33.9
2017-06-03T10:05:17.194Z,34.05
2017-06-03T10:06:27.558Z,34.05
2017-06-03T10:07:37.907Z,34.05
2017-06-03T10:08:48.269Z,34.19
2017-06-03T10:09:58.049Z,34.21
2017-06-03T10:11:08.409Z,34.12
2017-06-03T10:12:18.778Z,34.19
2017-06-03T10:13:29.120Z,34.18
2017-06-03T10:14:39.186Z,34.29
2017-06-03T10:15:49.294Z,34.29
2017-06-03T10:16:59.343Z,34.36
2017-06-03T10:18:09.402Z,34.34
2017-06-03T10:19:19.754Z,34.41
2017-06-03T10:20:30.133Z,34.46
2017-06-03T10:21:40.543Z,34.41
2017-06-03T10:22:50.598Z,34.33
2017-06-03T10:24:00.954Z,34.3
2017-06-03T10:25:11.004Z,34.36
2017-06-03T10:26:21.362Z,34.36
2017-06-03T10:27:31.744Z,34.41
2017-06-03T10:28:42.107Z,34.39
2017-06-03T10:29:52.149Z,34.4
2017-06-03T10:31:02.213Z,34.52
2017-06-03T10:32:12.580Z,34.59
2017-06-03T10:33:22.666Z,34.61
2017-06-03T10:34:33.076Z,34.66
2017-06-03T10:35:42.807Z,34.83
2017-06-03T10:36:53.173Z,34.94
2017-06-03T10:38:03.216Z,35.05
2017-06-03T10:39:13.625Z,35.02
2017-06-03T10:40:23.978Z,35.04
2017-06-03T10:41:34.322Z,35.11
2017-06-03T10:42:44.074Z,34.94
2017-06-03T10:43:54.434Z,34.97
2017-06-03T10:45:04.828Z,34.96
2017-06-03T10:46:14.864Z,35.02
2017-06-03T10:47:24.947Z,35.05
2017-06-03T10:48:34.679Z,35.06
2017-06-03T10:49:44.728Z,35.06
2017-06-03T10:50:55.132Z,35.11
2017-06-03T10:52:05.513Z,35.18
2017-06-03T10:53:15.566Z,35.15
2017-06-03T10:54:25.617Z,35.26
2017-06-03T10:55:35.994Z,35.2
2017-06-03T10:56:46.411Z,35.31
2017-06-03T10:57:56.784Z,35.35
2017-06-03T10:59:06.830Z,35.45
2017-06-03T11:00:17.205Z,35.46
2017-06-03T11:01:27.568Z,35.46
2017-06-03T11:02:37.960Z,35.46
2017-06-03T11:03:48.006Z,35.43
2017-06-03T11:04:58.073Z,35.4
2017-06-03T11:06:08.434Z,35.42
2017-06-03T11:07:18.796Z,35.38
2017-06-03T11:08:29.220Z,35.33
2017-06-03T11:09:38.931Z,35.43
2017-06-03T11:10:49.292Z,35.4
2017-06-03T11:11:59.649Z,35.46
2017-06-03T11:13:10.006Z,35.49
2017-06-03T11:14:20.112Z,35.58
2017-06-03T11:15:30.166Z,35.6
2017-06-03T11:16:40.521Z,35.57
2017-06-03T11:17:50.591Z,35.57
2017-06-03T11:19:00.950Z,35.49
2017-06-03T11:20:11.371Z,35.42
2017-06-03T11:21:21.415Z,35.53
2017-06-03T11:22:31.453Z,35.49
2017-06-03T11:23:41.821Z,35.47
2017-06-03T11:24:52.192Z,35.49
2017-06-03T11:26:02.604Z,35.39
2017-06-03T11:27:13.003Z,35.46
2017-06-03T11:28:23.073Z,35.4
2017-06-03T11:29:33.431Z,35.42
2017-06-03T11:30:43.162Z,35.4
2017-06-03T11:31:53.564Z,35.43
2017-06-03T11:33:03.940Z,35.38
2017-06-03T11:34:14.284Z,35.39
2017-06-03T11:35:24.658Z,35.46
2017-06-03T11:36:34.942Z,35.52
2017-06-03T11:37:44.984Z,35.72
2017-06-03T11:38:55.330Z,35.86
2017-06-03T11:40:05.705Z,35.98
2017-06-03T11:41:16.077Z,36.02
2017-06-03T11:42:26.436Z,36.08
2017-06-03T11:43:36.792Z,36.09
2017-06-03T11:44:47.151Z,36.01
2017-06-03T11:45:57.526Z,36.06
2017-06-03T11:47:07.875Z,36.17
2017-06-03T11:48:17.939Z,36.24
2017-06-03T11:49:28.027Z,36.28
2017-06-03T11:50:38.395Z,36.36
2017-06-03T11:51:48.777Z,36.43
2017-06-03T11:52:59.140Z,36.49
2017-06-03T11:54:09.188Z,36.41
2017-06-03T11:55:19.540Z,36.49
2017-06-03T11:56:29.917Z,36.44
2017-06-03T11:57:39.956Z,36.49
2017-06-03T11:58:50.318Z,36.47
2017-06-03T12:00:00.687Z,36.37
2017-06-03T12:01:11.109Z,36.06
2017-06-03T12:02:21.494Z,36.32
2017-06-03T12:03:31.559Z,36.33
2017-06-03T12:04:41.922Z,36.39
2017-06-03T12:05:52.274Z,36.39
2017-06-03T12:07:02.682Z,36.44
2017-06-03T12:08:13.043Z,36.47
2017-06-03T12:09:23.321Z,36.43
2017-06-03T12:10:33.303Z,36.36
2017-06-03T12:11:43.344Z,36.36
2017-06-03T12:12:53.126Z,36.26
2017-06-03T12:14:03.477Z,36.28
2017-06-03T12:15:13.519Z,36.36
2017-06-03T12:16:23.592Z,36.43
2017-06-03T12:17:33.654Z,36.43
2017-06-03T12:18:43.714Z,36.43
2017-06-03T12:19:54.094Z,36.46
2017-06-03T12:21:04.467Z,36.56
2017-06-03T12:22:14.831Z,36.8
2017-06-03T12:23:24.568Z,36.89
2017-06-03T12:24:34.623Z,36.96
2017-06-03T12:25:44.976Z,36.89
2017-06-03T12:26:55.018Z,36.77
2017-06-03T12:28:05.090Z,36.75
2017-06-03T12:29:15.151Z,36.84
2017-06-03T12:30:25.563Z,36.95
2017-06-03T12:31:35.924Z,37.04
2017-06-03T12:32:46.291Z,37.08
2017-06-03T12:33:56.353Z,37.12
2017-06-03T12:35:06.421Z,36.9
2017-06-03T12:36:16.827Z,36.56
2017-06-03T12:37:26.868Z,36.32
2017-06-03T12:38:37.234Z,35.95
2017-06-03T12:39:47.595Z,35.69
2017-06-03T12:40:57.944Z,35.53
2017-06-03T12:42:07.993Z,35.39
2017-06-03T12:43:17.752Z,35.21
2017-06-03T12:44:28.134Z,35.09
2017-06-03T12:45:38.187Z,34.93
2017-06-03T12:46:48.554Z,35.12
2017-06-03T12:47:58.980Z,35.49
2017-06-03T12:49:09.030Z,35.82
2017-06-03T12:50:18.778Z,36.19
2017-06-03T12:51:28.825Z,36.3
2017-06-03T12:52:39.227Z,36.58
2017-06-03T12:53:49.629Z,36.81
2017-06-03T12:54:59.983Z,36.78
2017-06-03T12:56:10.029Z,36.86
2017-06-03T12:57:20.073Z,36.8
2017-06-03T12:58:30.449Z,36.52
2017-06-03T12:59:40.878Z,36.36
2017-06-03T13:00:50.618Z,36.19
2017-06-03T13:02:00.994Z,36.33
2017-06-03T13:03:11.062Z,36.55
2017-06-03T13:04:21.414Z,36.41
2017-06-03T13:05:30.908Z,36.63
2017-06-03T13:06:40.978Z,36.74
2017-06-03T13:07:51.345Z,36.83
2017-06-03T13:09:01.679Z,36.75
2017-06-03T13:10:12.030Z,36.96
2017-06-03T13:11:21.460Z,37.24
2017-06-03T13:12:31.810Z,37.29
2017-06-03T13:13:41.859Z,37.42
2017-06-03T13:14:51.914Z,37.54
2017-06-03T13:16:02.263Z,37.64
2017-06-03T13:17:12.358Z,37.64
2017-06-03T13:18:22.414Z,37.68
2017-06-03T13:19:32.769Z,37.83
2017-06-03T13:20:43.134Z,37.88
2017-06-03T13:21:53.181Z,37.9
2017-06-03T13:23:03.551Z,37.87
2017-06-03T13:24:13.909Z,37.9
2017-06-03T13:25:23.970Z,37.98
2017-06-03T13:26:34.341Z,37.96
2017-06-03T13:27:44.732Z,37.91
2017-06-03T13:28:55.137Z,37.81
2017-06-03T13:30:04.875Z,37.72
2017-06-03T13:31:14.922Z,37.71
2017-06-03T13:32:25.278Z,37.59
2017-06-03T13:33:35.069Z,37.57
2017-06-03T13:34:44.826Z,37.56
2017-06-03T13:35:54.870Z,37.57
2017-06-03T13:37:05.449Z,37.57
2017-06-03T13:38:15.803Z,37.49
2017-06-03T13:39:26.177Z,37.54
2017-06-03T13:40:36.604Z,37.26
2017-06-03T13:41:46.645Z,36.9
2017-06-03T13:42:56.691Z,36.56
2017-06-03T13:44:07.055Z,36.25
2017-06-03T13:45:17.412Z,36.06
2017-06-03T13:46:27.828Z,35.8
2017-06-03T13:47:37.866Z,35.57
2017-06-03T13:48:47.916Z,35.34
2017-06-03T13:49:58.295Z,35.4
2017-06-03T13:51:07.724Z,35.18
2017-06-03T13:52:18.140Z,35.16
2017-06-03T13:53:28.491Z,35.3
2017-06-03T13:54:38.542Z,35.31
2017-06-03T13:55:48.924Z,34.96
2017-06-03T13:56:59.289Z,34.83
2017-06-03T13:58:09.649Z,34.63
2017-06-03T13:59:19.373Z,34.49
2017-06-03T14:00:29.474Z,34.39
2017-06-03T14:01:39.836Z,34.37
2017-06-03T14:02:49.932Z,34.51
2017-06-03T14:04:00.312Z,34.87
2017-06-03T14:05:10.694Z,35.13
2017-06-03T14:06:20.740Z,35.26
2017-06-03T14:07:31.104Z,35.34
2017-06-03T14:08:41.454Z,35.45
2017-06-03T14:09:51.843Z,35.55
2017-06-03T14:11:01.952Z,35.64
2017-06-03T14:12:12.304Z,35.67
2017-06-03T14:13:22.713Z,35.82
2017-06-03T14:14:32.447Z,35.77
2017-06-03T14:15:42.798Z,35.82
2017-06-03T14:16:52.543Z,35.83
2017-06-03T14:18:02.911Z,35.77
2017-06-03T14:19:13.284Z,35.86
2017-06-03T14:20:23.647Z,35.86
2017-06-03T14:21:34.011Z,35.86
2017-06-03T14:22:44.065Z,35.77
2017-06-03T14:23:54.130Z,35.8
2017-06-03T14:25:04.561Z,35.94
2017-06-03T14:26:14.610Z,35.95
2017-06-03T14:27:24.995Z,35.92
2017-06-03T14:28:35.351Z,35.96
2017-06-03T14:29:45.395Z,35.9
2017-06-03T14:30:55.808Z,36.09
2017-06-03T14:32:06.198Z,36.04
2017-06-03T14:33:15.942Z,36.18
2017-06-03T14:34:26.292Z,36.24
2017-06-03T14:35:36.359Z,36.19
2017-06-03T14:36:46.788Z,36.22
2017-06-03T14:37:57.141Z,36.24
2017-06-03T14:39:07.508Z,36.3
2017-06-03T14:40:17.556Z,36.33
2017-06-03T14:41:27.902Z,36.26
2017-06-03T14:42:37.948Z,36.06
2017-06-03T14:43:48.327Z,36.09
2017-06-03T14:44:58.048Z,35.96
2017-06-03T14:46:08.420Z,35.92
2017-06-03T14:47:18.789Z,36.01
2017-06-03T14:48:29.253Z,35.94
2017-06-03T14:49:39.622Z,35.86
2017-06-03T14:50:49.973Z,35.8
2017-06-03T14:52:00.028Z,35.8
2017-06-03T14:53:10.398Z,35.74
2017-06-03T14:54:20.772Z,35.74
2017-06-03T14:55:30.807Z,35.8
2017-06-03T14:56:41.166Z,35.8
2017-06-03T14:57:51.539Z,35.76
2017-06-03T14:59:01.902Z,35.83
2017-06-03T15:00:12.335Z,35.77
2017-06-03T15:01:22.687Z,35.86
2017-06-03T15:02:33.075Z,35.72
2017-06-03T15:03:43.127Z,35.64
2017-06-03T15:04:53.181Z,35.45
2017-06-03T15:06:03.603Z,35.28
2017-06-03T15:07:13.967Z,35.04
2017-06-03T15:08:24.330Z,34.87
2017-06-03T15:09:34.377Z,34.78
2017-06-03T15:10:44.117Z,34.66
2017-06-03T15:11:54.227Z,34.54
2017-06-03T15:13:04.599Z,34.51
2017-06-03T15:14:14.639Z,34.43
2017-06-03T15:15:24.712Z,34.49
2017-06-03T15:16:35.079Z,34.41
2017-06-03T15:17:45.166Z,34.39
2017-06-03T15:18:55.549Z,34.37
2017-06-03T15:20:05.931Z,34.4
2017-06-03T15:21:16.311Z,34.19
2017-06-03T15:22:26.362Z,34.22
2017-06-03T15:23:36.467Z,34.18
2017-06-03T15:24:46.514Z,34.1
2017-06-03T15:25:56.555Z,34.02
2017-06-03T15:27:06.917Z,34
2017-06-03T15:28:16.984Z,34.03
2017-06-03T15:29:27.345Z,34.02
2017-06-03T15:30:37.076Z,34.11
2017-06-03T15:31:47.126Z,34.22
2017-06-03T15:32:57.498Z,34.36
2017-06-03T15:34:07.853Z,34.54
2017-06-03T15:35:18.272Z,34.63
2017-06-03T15:36:28.316Z,34.64
2017-06-03T15:37:38.690Z,34.45
2017-06-03T15:38:49.073Z,34.36